Birchwood, WI (54817)

9:03 AM CDT on July 31, 2014 (GMT -0500)
The Woods (KWIBIRCH2) Elev 1214 ft | 45.63 °N, 91.57 °W | Change Station

Current weather conditions updated 11 minutes ago

Clear
Clear
62.1 °F
Feels Like 62.1 °F
N
0.0
Wind Variable Wind from SSW

Today is forecast to be nearly the same temperature as yesterday.

Today
High -- | Low -- °F
--% Chance of Precip.
Yesterday
High -- | Low -- °F
Precip. -- in
5:48 AM 8:35 PM
Waxing Crescent, 18% visible
Pressure 30.03 in
Visibility 10.0 miles
Clouds Clear
Dew Point 62 °F
Humidity 99%
Rainfall 0.00 in
Snow Depth Not available.
UV 3 out of 12
Pollen 7.10 out of 12
Air Quality Not available.
Flu Activity Not available.
METAR KRPD 311355Z AUTO 00000KT 10SM CLR 18/15 A3003 RMK AO2 T01810154

More Conditions Fewer Conditions

Pressure 30.03 in
Visibility 10.0 miles
Clouds Clear
Dew Point 62 °F
Humidity 99%
Rainfall 0.00 in
Snow Depth Not available.
UV 3 out of 12
Pollen 7.10 out of 12
Air Quality Not available.
Flu Activity Not available.
METAR KRPD 311355Z AUTO 00000KT 10SM CLR 18/15 A3003 RMK AO2 T01810154

More Conditions Fewer Conditions

10-Day Weather Forecast

Almanac

Astronomy

Jul. 31, 2014 Rise Set
Actual Time 5:48 AM CDT 8:35 PM CDT
Civil Twilight 5:14 AM CDT 9:10 PM CDT
Nautical Twilight 4:30 AM CDT 9:53 PM CDT
Astronomical Twilight 3:39 AM CDT 10:44 PM CDT
Moon 10:32 AM CDT 10:31 PM CDT
Length of Visible Light 15h 55m
Length of Day
14h 47m
Tomorrow will be 2m 27s shorter.
Waxing Crescent, 18% of the Moon is Illuminated
Today
Waxing Crescent
Aug 3
First Quarter
Aug 10
Full
Aug 17
Last Quarter
Aug 25
New

Today's Extremes

State Highs State Lows

Community

WunderPhotos

Upload Photos

1,739,329 photos uploaded!

Nearby

Snow Depth

Station Depth Elevation
No new snow has been reported.

Earthquake Activity

City Distance Mag. Time & Date
No recent earthquake activity has been reported nearby.
Minimum magnitude displayed is 2.5.

Coastal Water Temperatures

Place Temperature
No Stations Reporting

Nearby Weather Stations

Station Location Temp. Heat Index Dew Point Humidity Wind Precip. Elev Updated Type
The Woods, Birchwood, WI 62.1 °F - 62 °F 99% SSW  at  0.0 mph - / hr 1214 ft 8:52 AM CDT Normal
Shell Lake, Shell Lake, WI 65.5 °F - 59 °F 80% North  at  0.0 mph - / hr 1230 ft 9:03 AM CDT Normal
Shell Lake, WI 67.1 °F - 62 °F 85% SW  at  7.8 mph - / hr 1240 ft 8:53 AM CDT Normal
Chris and Kristin Olson, Barron, WI 70.6 °F 74 °F 61 °F 72% WNW  at  5.4 mph 0.00 in / hr 1122 ft 9:03 AM CDT Rapid Fire
Dairy Strategies HQ, Bruce, WI 62.0 °F - 60 °F 94% SE  at  0.0 mph - / hr 1099 ft 8:50 AM CDT Normal

Show More Stations Show Fewer Stations